createdAt,value
2022-10-14T00:00:01.215Z,84.0
2022-10-14T00:05:01.176Z,83.6
2022-10-14T00:10:01.120Z,83.2
2022-10-14T00:15:01.180Z,83.8
2022-10-14T00:25:01.265Z,83.4
2022-10-14T00:30:01.112Z,83.0
2022-10-14T00:40:01.181Z,83.2
2022-10-14T00:45:01.208Z,83.1
2022-10-14T00:50:01.145Z,82.4
2022-10-14T00:55:01.641Z,82.0
2022-10-14T01:00:01.143Z,81.0
2022-10-14T01:20:00.949Z,76.2
2022-10-14T01:40:01.400Z,79.0
2022-10-14T01:45:01.308Z,78.9
2022-10-14T01:50:01.562Z,79.3
2022-10-14T01:55:01.591Z,79.8
2022-10-14T02:00:01.313Z,80.0
2022-10-14T02:05:01.355Z,80.4
2022-10-14T02:10:01.219Z,80.6
2022-10-14T02:30:00.951Z,86.8
2022-10-14T02:35:00.856Z,83.2
2022-10-14T02:40:00.784Z,82.4
2022-10-14T02:45:01.159Z,81.9
2022-10-14T02:50:05.773Z,82.6
2022-10-14T02:55:00.918Z,82.3
2022-10-14T03:00:00.791Z,83.7
2022-10-14T03:05:00.861Z,84.5
2022-10-14T03:10:00.812Z,85.8
2022-10-14T03:15:00.856Z,85.7
2022-10-14T03:20:01.077Z,85.9
2022-10-14T03:25:02.983Z,85.4
2022-10-14T03:30:00.818Z,84.8
2022-10-14T03:35:00.923Z,84.3
2022-10-14T03:40:00.796Z,84.4
2022-10-14T03:45:01.222Z,84.3
2022-10-14T03:50:00.848Z,84.6
2022-10-14T03:55:00.849Z,85.2
2022-10-14T04:00:01.105Z,85.7
2022-10-14T04:05:01.340Z,87.5
2022-10-14T04:10:00.808Z,87.7
2022-10-14T04:15:00.867Z,87.4
2022-10-14T04:20:00.791Z,87.2
2022-10-14T04:25:01.020Z,86.1
2022-10-14T04:30:00.812Z,84.2
2022-10-14T04:35:00.954Z,84.1
2022-10-14T04:40:00.858Z,84.4
2022-10-14T04:45:00.916Z,84.8
2022-10-14T04:50:00.834Z,89.6
2022-10-14T04:55:01.096Z,90.2
2022-10-14T05:00:00.807Z,90.7
2022-10-14T05:05:00.849Z,91.8
2022-10-14T05:10:00.841Z,92.6
2022-10-14T05:15:00.911Z,89.9
2022-10-14T05:20:00.785Z,89.5
2022-10-14T05:25:00.916Z,87.9
2022-10-14T05:30:00.807Z,86.3
2022-10-14T05:35:01.464Z,84.0
2022-10-14T05:40:00.825Z,82.9
2022-10-14T05:45:00.918Z,82.7
2022-10-14T05:50:00.817Z,83.7
2022-10-14T05:55:00.922Z,83.6
2022-10-14T06:00:00.872Z,85.5
2022-10-14T06:05:00.865Z,86.9
2022-10-14T06:10:00.850Z,87.8
2022-10-14T06:15:00.940Z,89.3
2022-10-14T06:20:00.794Z,90.2
2022-10-14T06:25:04.170Z,90.8
2022-10-14T06:30:00.832Z,92.9
2022-10-14T06:35:00.904Z,93.9
2022-10-14T06:40:00.861Z,90.7
2022-10-14T06:45:00.954Z,94.7
2022-10-14T06:50:00.848Z,92.9
2022-10-14T06:55:00.921Z,88.9
2022-10-14T07:00:00.799Z,86.8
2022-10-14T07:05:01.068Z,88.9
2022-10-14T07:10:01.006Z,85.4
2022-10-14T07:15:01.896Z,86.4
2022-10-14T07:20:05.802Z,87.0
2022-10-14T07:25:05.897Z,87.8
2022-10-14T07:30:00.793Z,92.4
2022-10-14T07:35:00.891Z,91.9
2022-10-14T07:40:00.793Z,92.4
2022-10-14T07:45:00.947Z,94.6
2022-10-14T07:50:00.792Z,94.2
2022-10-14T07:55:00.863Z,89.6
2022-10-14T08:00:00.819Z,88.2
2022-10-14T08:30:00.930Z,85.4
2022-10-14T08:35:00.921Z,85.7
2022-10-14T08:40:00.786Z,86.1
2022-10-14T08:45:00.931Z,87.1
2022-10-14T08:50:00.883Z,86.8
2022-10-14T08:55:00.920Z,85.9
2022-10-14T09:00:00.791Z,85.5
2022-10-14T09:05:06.957Z,85.8
2022-10-14T09:10:00.790Z,83.2
2022-10-14T09:15:00.923Z,80.5
2022-10-14T09:20:00.876Z,78.1
2022-10-14T09:25:01.962Z,79.1
2022-10-14T09:30:00.802Z,76.2
2022-10-14T09:35:00.848Z,76.7
2022-10-14T09:40:00.907Z,77.7
2022-10-14T09:45:00.950Z,78.0
2022-10-14T09:50:00.789Z,75.5
2022-10-14T09:55:01.227Z,77.1
2022-10-14T10:00:01.123Z,73.8
2022-10-14T10:05:00.943Z,71.6
2022-10-14T10:20:00.891Z,71.2
2022-10-14T10:25:01.213Z,70.4
2022-10-14T10:30:00.759Z,69.3
2022-10-14T10:50:01.363Z,57.2
2022-10-14T10:55:01.445Z,55.6
2022-10-14T11:00:01.182Z,57.9
2022-10-14T11:05:01.338Z,57.3
2022-10-14T11:10:01.204Z,57.0
2022-10-14T11:15:01.307Z,56.8
2022-10-14T11:20:01.173Z,56.7
2022-10-14T11:25:01.240Z,55.0
2022-10-14T11:30:01.202Z,54.8
2022-10-14T11:35:01.253Z,54.3
2022-10-14T11:50:01.004Z,55.2
2022-10-14T11:55:00.988Z,54.8
2022-10-14T12:00:00.824Z,53.8
2022-10-14T12:05:00.941Z,54.7
2022-10-14T12:10:00.945Z,53.5
2022-10-14T12:15:01.976Z,52.3
2022-10-14T12:20:00.933Z,52.0
2022-10-14T12:25:02.188Z,52.2
2022-10-14T12:30:00.872Z,50.6
2022-10-14T12:35:00.955Z,51.8
2022-10-14T12:50:06.516Z,97.8
2022-10-14T13:10:00.938Z,53.0
2022-10-14T13:30:01.326Z,58.6
2022-10-14T13:50:02.617Z,55.8
2022-10-14T13:55:01.590Z,56.0
2022-10-14T14:20:01.063Z,56.8
2022-10-14T14:25:12.536Z,55.2
2022-10-14T14:30:00.986Z,56.1
2022-10-14T14:35:01.003Z,56.8
2022-10-14T14:40:00.968Z,56.2
2022-10-14T14:45:00.999Z,55.9
2022-10-14T14:50:28.773Z,56.2
2022-10-14T14:55:00.964Z,55.6
2022-10-14T15:00:00.966Z,54.5
2022-10-14T15:05:01.064Z,55.3
2022-10-14T15:10:01.236Z,54.8
2022-10-14T15:15:01.375Z,54.7
2022-10-14T15:20:01.315Z,54.6
2022-10-14T15:40:00.896Z,64.4
2022-10-14T15:45:00.823Z,64.2
2022-10-14T15:50:00.697Z,65.0
2022-10-14T15:55:01.511Z,63.0
2022-10-14T16:10:01.259Z,60.6
2022-10-14T16:15:01.192Z,89.2
2022-10-14T16:20:01.138Z,81.5
2022-10-14T16:25:01.228Z,78.5
2022-10-14T16:30:01.235Z,76.9
2022-10-14T16:35:01.174Z,79.9
2022-10-14T16:40:01.172Z,72.5
2022-10-14T16:45:01.305Z,75.5
2022-10-14T16:50:01.143Z,77.6
2022-10-14T16:55:01.239Z,79.4
2022-10-14T17:00:01.104Z,77.7
2022-10-14T17:05:01.232Z,76.8
2022-10-14T17:10:01.144Z,74.8
2022-10-14T17:15:02.192Z,73.8
2022-10-14T17:20:01.107Z,72.4
2022-10-14T17:25:01.169Z,74.9
2022-10-14T17:30:01.129Z,75.2
2022-10-14T17:35:02.289Z,77.8
2022-10-14T17:40:01.105Z,78.8
2022-10-14T17:45:01.172Z,80.8
2022-10-14T17:50:01.129Z,81.9
2022-10-14T17:55:01.494Z,83.0
2022-10-14T18:00:01.105Z,83.6
2022-10-14T18:05:01.235Z,85.8
2022-10-14T18:10:06.132Z,98.2
2022-10-14T18:15:01.234Z,100.2
2022-10-14T18:20:01.102Z,99.3
2022-10-14T18:25:02.206Z,97.6
2022-10-14T18:30:01.256Z,94.8
2022-10-14T18:35:01.187Z,81.3
2022-10-14T18:40:06.104Z,78.0
2022-10-14T18:45:01.769Z,79.2
2022-10-14T18:50:01.127Z,79.0
2022-10-14T18:55:01.240Z,90.5
2022-10-14T19:00:01.146Z,91.1
2022-10-14T19:05:01.188Z,92.2
2022-10-14T19:10:01.125Z,92.3
2022-10-14T19:15:02.201Z,93.5
2022-10-14T19:20:01.152Z,85.2
2022-10-14T19:25:01.650Z,84.3
2022-10-14T19:30:01.169Z,82.8
2022-10-14T19:35:01.282Z,80.9
2022-10-14T19:40:01.164Z,78.6
2022-10-14T19:45:01.283Z,74.2
2022-10-14T19:55:02.168Z,73.5
2022-10-14T20:00:01.130Z,73.6
2022-10-14T20:05:01.238Z,74.4
2022-10-14T20:10:02.635Z,76.9
2022-10-14T20:15:01.214Z,78.5
2022-10-14T20:20:01.113Z,80.5
2022-10-14T20:25:01.240Z,82.6
2022-10-14T20:30:01.118Z,84.2
2022-10-14T20:35:01.210Z,83.8
2022-10-14T20:40:01.131Z,85.2
2022-10-14T20:45:01.176Z,83.1
2022-10-14T20:50:01.132Z,84.7
2022-10-14T20:55:01.584Z,82.6
2022-10-14T21:00:01.112Z,80.3
2022-10-14T21:05:02.159Z,77.7
2022-10-14T21:10:01.113Z,79.2
2022-10-14T21:15:01.755Z,75.3
2022-10-14T21:20:01.113Z,76.2
2022-10-14T21:25:01.181Z,77.1
2022-10-14T21:30:01.131Z,77.6
2022-10-14T21:35:01.261Z,83.8
2022-10-14T21:40:01.151Z,84.3
2022-10-14T21:45:01.237Z,83.7
2022-10-14T21:50:01.168Z,84.5
2022-10-14T22:00:03.208Z,78.3
2022-10-14T22:05:01.231Z,80.2
2022-10-14T22:10:01.130Z,82.1
2022-10-14T22:20:01.149Z,78.0
2022-10-14T22:25:03.262Z,74.9
2022-10-14T22:30:02.248Z,71.5
2022-10-14T22:35:01.184Z,68.7
2022-10-14T22:40:01.165Z,70.1
2022-10-14T22:45:02.212Z,69.6
2022-10-14T22:50:01.196Z,70.8
2022-10-14T22:55:01.248Z,71.0
2022-10-14T23:00:01.164Z,71.3
2022-10-14T23:05:01.185Z,71.2
2022-10-14T23:10:01.140Z,69.6
2022-10-14T23:20:01.222Z,68.4
2022-10-14T23:25:01.251Z,67.0
2022-10-14T23:30:01.113Z,70.0
2022-10-14T23:35:01.237Z,68.3
2022-10-14T23:40:01.196Z,69.2
2022-10-14T23:45:01.183Z,70.4
2022-10-14T23:50:06.119Z,72.0
2022-10-14T23:55:01.189Z,70.2
